UZB234 USCC-UTTT
Flight info
| Callsign | UZB234 |
|---|---|
| Flight time | N/A |
| Altitude | 39000 |
| Route | LERTU2E LERTU R482 LANOR L145 DZG M168 GENDI Z632 ARSUL DIBAD |
| Aircraft | A20N/M-SDE2E3FGHIRWXY/LB1 |
Departure
| Time | 2026-04-13 17:33 |
|---|---|
| Airport | Kurchatov Chelyabinsk International Airport (USCC) |
Arrival
| Time | N/A |
|---|---|
| Airport | UTTT |
| Time | Latitude | Longitude | Altitude | Speed | Heading |
|---|---|---|---|---|---|
| 2026-04-13 17:11 | 55.29852 | 61.51334 | 751 ft | 0 kts | 193° |
| 2026-04-13 17:20 | 55.29857 | 61.51336 | 748 ft | 1 kts | 193° |
| 2026-04-13 17:20 | 55.29867 | 61.51340 | 747 ft | 2 kts | 197° |
| 2026-04-13 17:20 | 55.29880 | 61.51349 | 749 ft | 2 kts | 212° |
| 2026-04-13 17:20 | 55.29892 | 61.51365 | 748 ft | 2 kts | 234° |
| 2026-04-13 17:21 | 55.29900 | 61.51397 | 747 ft | 3 kts | 268° |
| 2026-04-13 17:21 | 55.29901 | 61.51406 | 747 ft | 0 kts | 276° |
| 2026-04-13 17:25 | 55.29902 | 61.51397 | 751 ft | 2 kts | 284° |
| 2026-04-13 17:26 | 55.29908 | 61.51359 | 748 ft | 5 kts | 283° |
| 2026-04-13 17:26 | 55.29922 | 61.51257 | 749 ft | 11 kts | 284° |
| 2026-04-13 17:26 | 55.29943 | 61.51103 | 751 ft | 14 kts | 284° |
| 2026-04-13 17:26 | 55.29969 | 61.50924 | 751 ft | 16 kts | 284° |
| 2026-04-13 17:27 | 55.30022 | 61.50514 | 751 ft | 18 kts | 283° |
| 2026-04-13 17:27 | 55.30053 | 61.50288 | 752 ft | 20 kts | 283° |
| 2026-04-13 17:27 | 55.30086 | 61.50056 | 756 ft | 17 kts | 291° |
| 2026-04-13 17:28 | 55.30187 | 61.50034 | 754 ft | 17 kts | 15° |
| 2026-04-13 17:28 | 55.30310 | 61.50087 | 755 ft | 20 kts | 13° |
| 2026-04-13 17:28 | 55.30428 | 61.50061 | 757 ft | 14 kts | 292° |
| 2026-04-13 17:28 | 55.30444 | 61.49894 | 756 ft | 15 kts | 283° |
| 2026-04-13 17:29 | 55.30470 | 61.49712 | 755 ft | 16 kts | 286° |
| 2026-04-13 17:29 | 55.30502 | 61.49508 | 758 ft | 21 kts | 284° |
| 2026-04-13 17:29 | 55.30544 | 61.49190 | 759 ft | 33 kts | 283° |
| 2026-04-13 17:29 | 55.30605 | 61.48768 | 763 ft | 37 kts | 283° |
| 2026-04-13 17:30 | 55.30659 | 61.48372 | 765 ft | 25 kts | 284° |
| 2026-04-13 17:30 | 55.30735 | 61.48167 | 766 ft | 18 kts | 360° |
| 2026-04-13 17:30 | 55.30767 | 61.48184 | 765 ft | 6 kts | 16° |
| 2026-04-13 17:30 | 55.30833 | 61.48213 | 764 ft | 13 kts | 7° |
| 2026-04-13 17:31 | 55.30879 | 61.48100 | 764 ft | 14 kts | 275° |
| 2026-04-13 17:31 | 55.30875 | 61.47946 | 766 ft | 11 kts | 311° |
| 2026-04-13 17:31 | 55.30903 | 61.47997 | 765 ft | 8 kts | 103° |
| 2026-04-13 17:31 | 55.30899 | 61.48025 | 764 ft | 0 kts | 104° |
| 2026-04-13 17:32 | 55.30896 | 61.48052 | 764 ft | 4 kts | 100° |
| 2026-04-13 17:32 | 55.30872 | 61.48237 | 764 ft | 44 kts | 103° |
| 2026-04-13 17:32 | 55.30744 | 61.49146 | 762 ft | 107 kts | 104° |
| 2026-04-13 17:33 | 55.30525 | 61.50713 | 749 ft | 155 kts | 104° |
| 2026-04-13 17:33 | 55.30238 | 61.52684 | 1046 ft | 171 kts | 105° |
| 2026-04-13 17:33 | 55.29935 | 61.54727 | 1659 ft | 175 kts | 107° |
| 2026-04-13 17:33 | 55.29639 | 61.56803 | 2352 ft | 175 kts | 104° |
| 2026-04-13 17:34 | 55.29136 | 61.61228 | 3222 ft | 203 kts | 106° |
| 2026-04-13 17:34 | 55.28799 | 61.63762 | 3572 ft | 225 kts | 107° |
| 2026-04-13 17:34 | 55.28410 | 61.66534 | 4018 ft | 249 kts | 107° |
| 2026-04-13 17:35 | 55.27977 | 61.69574 | 4675 ft | 263 kts | 107° |
| 2026-04-13 17:35 | 55.27340 | 61.72612 | 5458 ft | 269 kts | 126° |
| 2026-04-13 17:35 | 55.26010 | 61.74881 | 6249 ft | 270 kts | 153° |
| 2026-04-13 17:35 | 55.24249 | 61.76041 | 7050 ft | 273 kts | 167° |
| 2026-04-13 17:36 | 55.22407 | 61.76929 | 7898 ft | 277 kts | 168° |
| 2026-04-13 17:36 | 55.20526 | 61.77808 | 8738 ft | 282 kts | 168° |
| 2026-04-13 17:36 | 55.18610 | 61.78727 | 9562 ft | 288 kts | 167° |
| 2026-04-13 17:36 | 55.16655 | 61.79690 | 10357 ft | 297 kts | 167° |
| 2026-04-13 17:37 | 55.14595 | 61.80719 | 10661 ft | 320 kts | 166° |
| 2026-04-13 17:37 | 55.12377 | 61.81835 | 10951 ft | 341 kts | 166° |
| 2026-04-13 17:37 | 55.10070 | 61.83004 | 11629 ft | 348 kts | 166° |
| 2026-04-13 17:37 | 55.07732 | 61.84191 | 12406 ft | 352 kts | 166° |
| 2026-04-13 17:38 | 55.05363 | 61.85391 | 13153 ft | 357 kts | 166° |
| 2026-04-13 17:38 | 55.02956 | 61.86608 | 13920 ft | 362 kts | 166° |
| 2026-04-13 17:38 | 55.00521 | 61.87835 | 14595 ft | 367 kts | 166° |
| 2026-04-13 17:38 | 54.98088 | 61.89060 | 15269 ft | 370 kts | 166° |
| 2026-04-13 17:39 | 54.95599 | 61.90312 | 15941 ft | 374 kts | 167° |
| 2026-04-13 17:39 | 54.93083 | 61.91576 | 16599 ft | 378 kts | 167° |
| 2026-04-13 17:39 | 54.90543 | 61.92850 | 17256 ft | 382 kts | 167° |
| 2026-04-13 17:39 | 54.88017 | 61.94450 | 17909 ft | 389 kts | 158° |
| 2026-04-13 17:40 | 54.85549 | 61.96470 | 18553 ft | 394 kts | 158° |
| 2026-04-13 17:40 | 54.83062 | 61.98507 | 19118 ft | 397 kts | 158° |
| 2026-04-13 17:40 | 54.80547 | 62.00556 | 19692 ft | 400 kts | 158° |
| 2026-04-13 17:40 | 54.78014 | 62.02612 | 20276 ft | 403 kts | 159° |
| 2026-04-13 17:41 | 54.75461 | 62.04678 | 20834 ft | 407 kts | 159° |
| 2026-04-13 17:41 | 54.72886 | 62.06756 | 21385 ft | 410 kts | 159° |
| 2026-04-13 17:41 | 54.70286 | 62.08851 | 21924 ft | 414 kts | 159° |
| 2026-04-13 17:41 | 54.67665 | 62.10960 | 22472 ft | 417 kts | 159° |
| 2026-04-13 17:42 | 54.65024 | 62.13113 | 22980 ft | 422 kts | 158° |
| 2026-04-13 17:42 | 54.62407 | 62.15475 | 23508 ft | 426 kts | 156° |
| 2026-04-13 17:42 | 54.59793 | 62.17932 | 23995 ft | 431 kts | 155° |
| 2026-04-13 17:42 | 54.57151 | 62.20414 | 24418 ft | 434 kts | 156° |
| 2026-04-13 17:43 | 54.54482 | 62.22895 | 24841 ft | 437 kts | 156° |
| 2026-04-13 17:43 | 54.51787 | 62.25374 | 25266 ft | 440 kts | 156° |
| 2026-04-13 17:43 | 54.49073 | 62.27856 | 25667 ft | 444 kts | 156° |
| 2026-04-13 17:43 | 54.46337 | 62.30347 | 26068 ft | 447 kts | 156° |
| 2026-04-13 17:44 | 54.43583 | 62.32871 | 26456 ft | 451 kts | 155° |
| 2026-04-13 17:44 | 54.40893 | 62.35570 | 26829 ft | 455 kts | 153° |
| 2026-04-13 17:44 | 54.38181 | 62.38412 | 27216 ft | 458 kts | 152° |
| 2026-04-13 17:44 | 54.35448 | 62.41279 | 27589 ft | 461 kts | 152° |
| 2026-04-13 17:45 | 54.32693 | 62.44138 | 27942 ft | 464 kts | 153° |
| 2026-04-13 17:45 | 54.29912 | 62.46995 | 28282 ft | 467 kts | 153° |
| 2026-04-13 17:45 | 54.27107 | 62.49857 | 28633 ft | 470 kts | 153° |
| 2026-04-13 17:45 | 54.24283 | 62.52728 | 28961 ft | 473 kts | 153° |
| 2026-04-13 17:46 | 54.21448 | 62.55602 | 29302 ft | 475 kts | 153° |
| 2026-04-13 17:46 | 54.18597 | 62.58487 | 29610 ft | 478 kts | 153° |
| 2026-04-13 17:46 | 54.15727 | 62.61389 | 29913 ft | 481 kts | 153° |
| 2026-04-13 17:46 | 54.12843 | 62.64299 | 30221 ft | 483 kts | 153° |
| 2026-04-13 17:47 | 54.09939 | 62.67225 | 30514 ft | 486 kts | 153° |
| 2026-04-13 17:47 | 54.07018 | 62.70159 | 30757 ft | 489 kts | 153° |
| 2026-04-13 17:47 | 54.04082 | 62.73087 | 30999 ft | 491 kts | 153° |
| 2026-04-13 17:47 | 54.01119 | 62.76034 | 31262 ft | 494 kts | 153° |
| 2026-04-13 17:48 | 53.98145 | 62.78988 | 31530 ft | 496 kts | 153° |
| 2026-04-13 17:48 | 53.95162 | 62.81949 | 31838 ft | 497 kts | 152° |
| 2026-04-13 17:48 | 53.92169 | 62.84916 | 32154 ft | 498 kts | 152° |
| 2026-04-13 17:48 | 53.89172 | 62.87880 | 32463 ft | 498 kts | 152° |
| 2026-04-13 17:49 | 53.86174 | 62.90842 | 32768 ft | 499 kts | 152° |
| 2026-04-13 17:49 | 53.83211 | 62.93764 | 33061 ft | 500 kts | 152° |
| 2026-04-13 17:49 | 53.80201 | 62.96727 | 33348 ft | 501 kts | 152° |
| 2026-04-13 17:49 | 53.77189 | 62.99689 | 33636 ft | 501 kts | 151° |
| 2026-04-13 17:50 | 53.74175 | 63.02647 | 33929 ft | 501 kts | 151° |
| 2026-04-13 17:50 | 53.71148 | 63.05612 | 34211 ft | 502 kts | 151° |
| 2026-04-13 17:50 | 53.68132 | 63.08563 | 34478 ft | 502 kts | 151° |
| 2026-04-13 17:50 | 53.65117 | 63.11509 | 34801 ft | 499 kts | 151° |
| 2026-04-13 17:51 | 53.62113 | 63.14439 | 35126 ft | 497 kts | 152° |
| 2026-04-13 17:51 | 53.59129 | 63.17346 | 35432 ft | 495 kts | 152° |
| 2026-04-13 17:51 | 53.56147 | 63.20244 | 35709 ft | 494 kts | 152° |
| 2026-04-13 17:51 | 53.53176 | 63.23127 | 35986 ft | 492 kts | 152° |
| 2026-04-13 17:52 | 53.50211 | 63.26001 | 36268 ft | 490 kts | 152° |
| 2026-04-13 17:52 | 53.47259 | 63.28858 | 36548 ft | 488 kts | 152° |
| 2026-04-13 17:52 | 53.44318 | 63.31700 | 36794 ft | 487 kts | 152° |
| 2026-04-13 17:52 | 53.41425 | 63.34491 | 37037 ft | 486 kts | 153° |
| 2026-04-13 17:53 | 53.39446 | 63.36397 | 37191 ft | 485 kts | 153° |
| 2026-04-13 17:53 | 53.35571 | 63.40124 | 37480 ft | 483 kts | 153° |
| 2026-04-13 17:53 | 53.32659 | 63.42919 | 37690 ft | 482 kts | 153° |
| 2026-04-13 17:53 | 53.29744 | 63.45712 | 37910 ft | 481 kts | 153° |
| 2026-04-13 17:54 | 53.26856 | 63.48476 | 38221 ft | 478 kts | 153° |
| 2026-04-13 17:54 | 53.23969 | 63.51235 | 38416 ft | 477 kts | 153° |
| 2026-04-13 17:54 | 53.21088 | 63.53982 | 38565 ft | 476 kts | 153° |
| 2026-04-13 17:54 | 53.18217 | 63.56716 | 38701 ft | 476 kts | 153° |
| 2026-04-13 17:55 | 53.15307 | 63.59364 | 38839 ft | 475 kts | 155° |
| 2026-04-13 17:55 | 53.13380 | 63.61045 | 38931 ft | 475 kts | 156° |
| 2026-04-13 17:56 | 53.07290 | 63.66300 | 39075 ft | 476 kts | 156° |
| 2026-04-13 17:56 | 53.01427 | 63.71394 | 39267 ft | 475 kts | 155° |
| 2026-04-13 17:57 | 52.95561 | 63.76501 | 39337 ft | 475 kts | 155° |
| 2026-04-13 17:57 | 52.89704 | 63.81588 | 39329 ft | 475 kts | 155° |
| 2026-04-13 17:58 | 52.83844 | 63.86661 | 39318 ft | 475 kts | 155° |
| 2026-04-13 17:58 | 52.77984 | 63.91718 | 39326 ft | 475 kts | 155° |
| 2026-04-13 17:59 | 52.72150 | 63.96737 | 39327 ft | 475 kts | 155° |
| 2026-04-13 17:59 | 52.66285 | 64.01768 | 39322 ft | 475 kts | 155° |
| 2026-04-13 18:00 | 52.60415 | 64.06788 | 39311 ft | 475 kts | 155° |
| 2026-04-13 18:00 | 52.54542 | 64.11795 | 39300 ft | 475 kts | 155° |
| 2026-04-13 18:01 | 52.48666 | 64.16787 | 39314 ft | 475 kts | 155° |
| 2026-04-13 18:01 | 52.42792 | 64.21764 | 39310 ft | 475 kts | 155° |
| 2026-04-13 18:02 | 52.36916 | 64.26728 | 39309 ft | 475 kts | 155° |
| 2026-04-13 18:02 | 52.31064 | 64.31656 | 39313 ft | 476 kts | 155° |
| 2026-04-13 18:03 | 52.25174 | 64.36603 | 39307 ft | 476 kts | 155° |
| 2026-04-13 18:03 | 52.19239 | 64.41462 | 39310 ft | 477 kts | 156° |
| 2026-04-13 18:04 | 52.13290 | 64.46244 | 39314 ft | 477 kts | 156° |
| 2026-04-13 18:04 | 52.08340 | 64.50227 | 39305 ft | 477 kts | 156° |
| 2026-04-13 18:05 | 52.02384 | 64.55016 | 39310 ft | 478 kts | 156° |
| 2026-04-13 18:05 | 51.95454 | 64.60573 | 39308 ft | 478 kts | 156° |
| 2026-04-13 18:06 | 51.90456 | 64.64569 | 39300 ft | 478 kts | 156° |
| 2026-04-13 18:06 | 51.84534 | 64.69291 | 39296 ft | 476 kts | 156° |
| 2026-04-13 18:07 | 51.78574 | 64.74028 | 39297 ft | 477 kts | 156° |
| 2026-04-13 18:07 | 51.72617 | 64.78752 | 39292 ft | 477 kts | 156° |
| 2026-04-13 18:08 | 51.66672 | 64.83523 | 39295 ft | 477 kts | 155° |
| 2026-04-13 18:08 | 51.60735 | 64.88293 | 39290 ft | 477 kts | 155° |
| 2026-04-13 18:09 | 51.54830 | 64.93014 | 39290 ft | 477 kts | 155° |
| 2026-04-13 18:09 | 51.48884 | 64.97749 | 39291 ft | 477 kts | 155° |
| 2026-04-13 18:10 | 51.42924 | 65.02482 | 39288 ft | 477 kts | 155° |
| 2026-04-13 18:10 | 51.36964 | 65.07200 | 39291 ft | 477 kts | 155° |
| 2026-04-13 18:11 | 51.31040 | 65.11876 | 39286 ft | 477 kts | 155° |
| 2026-04-13 18:11 | 51.25081 | 65.16567 | 39281 ft | 477 kts | 155° |
| 2026-04-13 18:12 | 51.19137 | 65.21232 | 39280 ft | 477 kts | 155° |
| 2026-04-13 18:12 | 51.13196 | 65.25881 | 39276 ft | 477 kts | 155° |
| 2026-04-13 18:13 | 51.07220 | 65.30544 | 39271 ft | 477 kts | 155° |
| 2026-04-13 18:13 | 51.01260 | 65.35182 | 39266 ft | 477 kts | 155° |
| 2026-04-13 18:14 | 50.95313 | 65.39796 | 39266 ft | 477 kts | 155° |
| 2026-04-13 18:14 | 50.90846 | 65.43253 | 39267 ft | 477 kts | 155° |
| 2026-04-13 18:15 | 50.85886 | 65.47083 | 39261 ft | 476 kts | 155° |
| 2026-04-13 18:15 | 50.80326 | 65.51365 | 39260 ft | 476 kts | 155° |
| 2026-04-13 18:16 | 50.74364 | 65.55944 | 39259 ft | 477 kts | 155° |
| 2026-04-13 18:16 | 50.68395 | 65.60515 | 39257 ft | 477 kts | 155° |
| 2026-04-13 18:17 | 50.62429 | 65.65072 | 39260 ft | 477 kts | 155° |
| 2026-04-13 18:17 | 50.56458 | 65.69619 | 39261 ft | 477 kts | 155° |
| 2026-04-13 18:18 | 50.50469 | 65.74167 | 39257 ft | 480 kts | 155° |
| 2026-04-13 18:18 | 50.44425 | 65.78743 | 39260 ft | 485 kts | 155° |
| 2026-04-13 18:19 | 50.38320 | 65.83353 | 39258 ft | 489 kts | 155° |
| 2026-04-13 18:19 | 50.32157 | 65.87998 | 39255 ft | 493 kts | 155° |
| 2026-04-13 18:20 | 50.25947 | 65.92667 | 39255 ft | 496 kts | 155° |
| 2026-04-13 18:20 | 50.19749 | 65.97315 | 39253 ft | 498 kts | 155° |
| 2026-04-13 18:21 | 50.13487 | 66.02006 | 39248 ft | 499 kts | 154° |
| 2026-04-13 18:21 | 50.07284 | 66.06957 | 39249 ft | 501 kts | 153° |
| 2026-04-13 18:22 | 50.01100 | 66.11944 | 39246 ft | 501 kts | 153° |
| 2026-04-13 18:22 | 49.94895 | 66.16891 | 39246 ft | 501 kts | 153° |
| 2026-04-13 18:23 | 49.88685 | 66.21812 | 39242 ft | 501 kts | 153° |
| 2026-04-13 18:23 | 49.82474 | 66.26720 | 39241 ft | 501 kts | 153° |
| 2026-04-13 18:24 | 49.76297 | 66.31586 | 39239 ft | 501 kts | 153° |
| 2026-04-13 18:24 | 49.70031 | 66.36324 | 39240 ft | 501 kts | 156° |
| 2026-04-13 18:25 | 49.63658 | 66.40702 | 39236 ft | 501 kts | 156° |
| 2026-04-13 18:25 | 49.57298 | 66.45096 | 39239 ft | 501 kts | 156° |
| 2026-04-13 18:26 | 49.50946 | 66.49518 | 39239 ft | 501 kts | 156° |
| 2026-04-13 18:26 | 49.44596 | 66.53937 | 39239 ft | 501 kts | 156° |
| 2026-04-13 18:27 | 49.38244 | 66.58343 | 39240 ft | 500 kts | 156° |
| 2026-04-13 18:27 | 49.31940 | 66.62704 | 39243 ft | 500 kts | 156° |
| 2026-04-13 18:28 | 49.25582 | 66.67089 | 39243 ft | 500 kts | 156° |
| 2026-04-13 18:28 | 49.19239 | 66.71452 | 39241 ft | 500 kts | 156° |
| 2026-04-13 18:29 | 49.12903 | 66.75797 | 39242 ft | 499 kts | 156° |
| 2026-04-13 18:29 | 49.06605 | 66.80104 | 39246 ft | 499 kts | 156° |
| 2026-04-13 18:30 | 49.00272 | 66.84424 | 39240 ft | 498 kts | 156° |
| 2026-04-13 18:30 | 48.93942 | 66.88729 | 39244 ft | 498 kts | 156° |
| 2026-04-13 18:31 | 48.87701 | 66.93300 | 39248 ft | 497 kts | 153° |
| 2026-04-13 18:31 | 48.81534 | 66.98063 | 39247 ft | 497 kts | 153° |
| 2026-04-13 18:32 | 48.75373 | 67.02745 | 39251 ft | 487 kts | 153° |
| 2026-04-13 18:32 | 48.72383 | 67.04999 | 39247 ft | 474 kts | 153° |
| 2026-04-13 18:32 | 48.69483 | 67.07178 | 39251 ft | 467 kts | 153° |
| 2026-04-13 18:33 | 48.63627 | 67.11572 | 39252 ft | 472 kts | 153° |
| 2026-04-13 18:33 | 48.57717 | 67.15994 | 39247 ft | 474 kts | 153° |
| 2026-04-13 18:34 | 48.48864 | 67.22597 | 39249 ft | 473 kts | 153° |
| 2026-04-13 18:34 | 48.42962 | 67.26984 | 39244 ft | 472 kts | 153° |
| 2026-04-13 18:35 | 48.37067 | 67.31355 | 39244 ft | 472 kts | 153° |
| 2026-04-13 18:35 | 48.31114 | 67.35563 | 39239 ft | 472 kts | 155° |
| 2026-04-13 18:36 | 48.25141 | 67.39683 | 39241 ft | 472 kts | 154° |
| 2026-04-13 18:36 | 48.19174 | 67.43818 | 39234 ft | 472 kts | 154° |
| 2026-04-13 18:37 | 48.13210 | 67.47953 | 39233 ft | 472 kts | 154° |
| 2026-04-13 18:37 | 48.07282 | 67.52054 | 39231 ft | 472 kts | 154° |
| 2026-04-13 18:38 | 48.01313 | 67.56172 | 39225 ft | 472 kts | 154° |
| 2026-04-13 18:38 | 47.95354 | 67.60274 | 39224 ft | 471 kts | 154° |
| 2026-04-13 18:39 | 47.89420 | 67.64347 | 39222 ft | 471 kts | 154° |
| 2026-04-13 18:39 | 47.83465 | 67.68424 | 39219 ft | 471 kts | 154° |
| 2026-04-13 18:40 | 47.77512 | 67.72487 | 39214 ft | 471 kts | 155° |
| 2026-04-13 18:40 | 47.71326 | 67.75697 | 39210 ft | 471 kts | 166° |
| 2026-04-13 18:41 | 47.64867 | 67.77271 | 39210 ft | 470 kts | 175° |
| 2026-04-13 18:41 | 47.58352 | 67.78162 | 39205 ft | 470 kts | 175° |
| 2026-04-13 18:42 | 47.51840 | 67.79090 | 39207 ft | 470 kts | 175° |
| 2026-04-13 18:42 | 47.45329 | 67.80027 | 39203 ft | 470 kts | 175° |
| 2026-04-13 18:43 | 47.38809 | 67.80964 | 39204 ft | 470 kts | 175° |
| 2026-04-13 18:43 | 47.32305 | 67.81896 | 39203 ft | 469 kts | 175° |
| 2026-04-13 18:44 | 47.25847 | 67.82818 | 39200 ft | 469 kts | 175° |
| 2026-04-13 18:44 | 47.19350 | 67.83744 | 39201 ft | 469 kts | 175° |
| 2026-04-13 18:45 | 47.12855 | 67.84667 | 39194 ft | 469 kts | 175° |
| 2026-04-13 18:45 | 47.06361 | 67.85588 | 39192 ft | 468 kts | 175° |
| 2026-04-13 18:46 | 46.99869 | 67.86506 | 39189 ft | 468 kts | 175° |
| 2026-04-13 18:46 | 46.93374 | 67.87209 | 39186 ft | 468 kts | 177° |
| 2026-04-13 18:47 | 46.86876 | 67.87820 | 39177 ft | 467 kts | 177° |
| 2026-04-13 18:47 | 46.80386 | 67.88460 | 39174 ft | 467 kts | 176° |
| 2026-04-13 18:48 | 46.73942 | 67.89109 | 39176 ft | 467 kts | 177° |
| 2026-04-13 18:48 | 46.67461 | 67.89761 | 39170 ft | 466 kts | 177° |
| 2026-04-13 18:49 | 46.60983 | 67.90412 | 39168 ft | 466 kts | 177° |
| 2026-04-13 18:49 | 46.54500 | 67.91060 | 39169 ft | 466 kts | 177° |
| 2026-04-13 18:50 | 46.48049 | 67.91925 | 39164 ft | 465 kts | 174° |
| 2026-04-13 18:50 | 46.41658 | 67.92936 | 39157 ft | 465 kts | 175° |
| 2026-04-13 18:51 | 46.35181 | 67.93918 | 39156 ft | 465 kts | 175° |
| 2026-04-13 18:51 | 46.28751 | 67.94870 | 39152 ft | 464 kts | 175° |
| 2026-04-13 18:52 | 46.22366 | 67.95811 | 39158 ft | 464 kts | 175° |
| 2026-04-13 18:52 | 46.15950 | 67.96755 | 39153 ft | 463 kts | 175° |
| 2026-04-13 18:53 | 46.10620 | 67.97537 | 39149 ft | 463 kts | 175° |
| 2026-04-13 18:53 | 46.04215 | 67.98475 | 39145 ft | 462 kts | 175° |
| 2026-04-13 18:54 | 45.97808 | 67.99411 | 39137 ft | 462 kts | 175° |
| 2026-04-13 18:54 | 45.91406 | 68.00342 | 39133 ft | 462 kts | 175° |
| 2026-04-13 18:55 | 45.85008 | 68.01271 | 39136 ft | 462 kts | 175° |
| 2026-04-13 18:55 | 45.78615 | 68.02197 | 39131 ft | 462 kts | 176° |
| 2026-04-13 18:56 | 45.72215 | 68.03122 | 39133 ft | 462 kts | 176° |
| 2026-04-13 18:56 | 45.65856 | 68.04039 | 39125 ft | 462 kts | 176° |
| 2026-04-13 18:57 | 45.59446 | 68.04961 | 39117 ft | 463 kts | 176° |
| 2026-04-13 18:57 | 45.53021 | 68.05883 | 39117 ft | 464 kts | 176° |
| 2026-04-13 18:58 | 45.46594 | 68.06803 | 39116 ft | 464 kts | 176° |
| 2026-04-13 18:58 | 45.40151 | 68.07724 | 39123 ft | 465 kts | 176° |
| 2026-04-13 18:59 | 45.33742 | 68.08637 | 39121 ft | 466 kts | 176° |
| 2026-04-13 18:59 | 45.27274 | 68.09557 | 39124 ft | 467 kts | 176° |
| 2026-04-13 19:00 | 45.20795 | 68.10476 | 39120 ft | 468 kts | 176° |
| 2026-04-13 19:00 | 45.14312 | 68.11394 | 39125 ft | 469 kts | 176° |
| 2026-04-13 19:01 | 45.07809 | 68.12312 | 39121 ft | 470 kts | 177° |
| 2026-04-13 19:01 | 45.01341 | 68.13224 | 39126 ft | 471 kts | 177° |
| 2026-04-13 19:02 | 44.94816 | 68.14141 | 39126 ft | 471 kts | 177° |
| 2026-04-13 19:02 | 44.88275 | 68.15058 | 39129 ft | 472 kts | 177° |
| 2026-04-13 19:03 | 44.81747 | 68.15972 | 39120 ft | 471 kts | 177° |
| 2026-04-13 19:03 | 44.75225 | 68.16883 | 39120 ft | 471 kts | 177° |
| 2026-04-13 19:04 | 44.68700 | 68.17791 | 39116 ft | 471 kts | 177° |
| 2026-04-13 19:04 | 44.62175 | 68.18698 | 39112 ft | 471 kts | 177° |
| 2026-04-13 19:05 | 44.55643 | 68.19604 | 39100 ft | 470 kts | 178° |
| 2026-04-13 19:05 | 44.52401 | 68.20054 | 38856 ft | 468 kts | 178° |
| 2026-04-13 19:05 | 44.49205 | 68.20495 | 38277 ft | 467 kts | 177° |
| 2026-04-13 19:06 | 44.45966 | 68.20941 | 37557 ft | 468 kts | 177° |
| 2026-04-13 19:06 | 44.42732 | 68.21386 | 37205 ft | 465 kts | 177° |
| 2026-04-13 19:06 | 44.36220 | 68.22284 | 37121 ft | 475 kts | 177° |
| 2026-04-13 19:07 | 44.29620 | 68.23195 | 37119 ft | 475 kts | 177° |
| 2026-04-13 19:07 | 44.23040 | 68.24101 | 37122 ft | 475 kts | 177° |
| 2026-04-13 19:08 | 44.16459 | 68.25003 | 37119 ft | 475 kts | 177° |
| 2026-04-13 19:08 | 44.09874 | 68.25904 | 37122 ft | 475 kts | 177° |
| 2026-04-13 19:09 | 44.03297 | 68.26801 | 37117 ft | 475 kts | 177° |
| 2026-04-13 19:09 | 43.96722 | 68.27696 | 37108 ft | 474 kts | 177° |
| 2026-04-13 19:10 | 43.90198 | 68.28581 | 37104 ft | 474 kts | 177° |
| 2026-04-13 19:10 | 43.83641 | 68.29470 | 37101 ft | 473 kts | 178° |
| 2026-04-13 19:11 | 43.77096 | 68.30356 | 37099 ft | 473 kts | 178° |
| 2026-04-13 19:11 | 43.70538 | 68.31241 | 37098 ft | 473 kts | 178° |
| 2026-04-13 19:12 | 43.63986 | 68.32123 | 37096 ft | 473 kts | 178° |
| 2026-04-13 19:12 | 43.57427 | 68.33005 | 37089 ft | 473 kts | 178° |
| 2026-04-13 19:13 | 43.50871 | 68.33885 | 37082 ft | 473 kts | 179° |
| 2026-04-13 19:13 | 43.44310 | 68.34762 | 37081 ft | 473 kts | 179° |
| 2026-04-13 19:14 | 43.37750 | 68.35638 | 37078 ft | 473 kts | 179° |
| 2026-04-13 19:14 | 43.31187 | 68.36760 | 37074 ft | 477 kts | 172° |
| 2026-04-13 19:15 | 43.24801 | 68.39426 | 37069 ft | 483 kts | 161° |
| 2026-04-13 19:15 | 43.18614 | 68.42827 | 36782 ft | 481 kts | 162° |
| 2026-04-13 19:16 | 43.15501 | 68.44520 | 36185 ft | 482 kts | 162° |
| 2026-04-13 19:16 | 43.12373 | 68.46211 | 35479 ft | 484 kts | 162° |
| 2026-04-13 19:16 | 43.09239 | 68.47901 | 35174 ft | 486 kts | 162° |
| 2026-04-13 19:16 | 43.06055 | 68.49614 | 35070 ft | 495 kts | 162° |
| 2026-04-13 19:17 | 42.99634 | 68.53068 | 35055 ft | 496 kts | 162° |
| 2026-04-13 19:17 | 42.93197 | 68.56524 | 35047 ft | 496 kts | 162° |
| 2026-04-13 19:18 | 42.86768 | 68.59967 | 35047 ft | 496 kts | 162° |
| 2026-04-13 19:18 | 42.80377 | 68.63384 | 35033 ft | 496 kts | 162° |
| 2026-04-13 19:19 | 42.73954 | 68.66862 | 35033 ft | 497 kts | 162° |
| 2026-04-13 19:19 | 42.67529 | 68.70340 | 35032 ft | 497 kts | 162° |
| 2026-04-13 19:20 | 42.61090 | 68.73811 | 35036 ft | 497 kts | 162° |
| 2026-04-13 19:20 | 42.54650 | 68.77273 | 35034 ft | 497 kts | 163° |
| 2026-04-13 19:21 | 42.48161 | 68.80412 | 35026 ft | 489 kts | 174° |
| 2026-04-13 19:21 | 42.44818 | 68.80937 | 35018 ft | 478 kts | 187° |
| 2026-04-13 19:21 | 42.41551 | 68.80555 | 35016 ft | 466 kts | 199° |
| 2026-04-13 19:22 | 42.38496 | 68.79316 | 35015 ft | 452 kts | 211° |
| 2026-04-13 19:22 | 42.35747 | 68.77376 | 34992 ft | 441 kts | 219° |
| 2026-04-13 19:22 | 42.33131 | 68.75246 | 34689 ft | 439 kts | 219° |
| 2026-04-13 19:22 | 42.30507 | 68.73131 | 34122 ft | 439 kts | 219° |
| 2026-04-13 19:23 | 42.27880 | 68.71029 | 33399 ft | 439 kts | 219° |
| 2026-04-13 19:23 | 42.25248 | 68.68936 | 33089 ft | 440 kts | 219° |
| 2026-04-13 19:23 | 42.19928 | 68.64706 | 33006 ft | 448 kts | 219° |
| 2026-04-13 19:24 | 42.14561 | 68.60465 | 33010 ft | 447 kts | 218° |
| 2026-04-13 19:24 | 42.09195 | 68.56227 | 33006 ft | 446 kts | 218° |
| 2026-04-13 19:25 | 42.03840 | 68.52005 | 33007 ft | 445 kts | 218° |
| 2026-04-13 19:25 | 41.98501 | 68.47801 | 33012 ft | 444 kts | 218° |
| 2026-04-13 19:26 | 41.93163 | 68.43607 | 33008 ft | 444 kts | 218° |
| 2026-04-13 19:26 | 41.87836 | 68.39431 | 33006 ft | 443 kts | 218° |
| 2026-04-13 19:27 | 41.82511 | 68.35264 | 32748 ft | 442 kts | 217° |
| 2026-04-13 19:27 | 41.79855 | 68.33189 | 32480 ft | 443 kts | 217° |
| 2026-04-13 19:27 | 41.77179 | 68.31097 | 32224 ft | 447 kts | 217° |
| 2026-04-13 19:28 | 41.74489 | 68.28998 | 31956 ft | 447 kts | 217° |
| 2026-04-13 19:28 | 41.71808 | 68.26912 | 31477 ft | 445 kts | 217° |
| 2026-04-13 19:28 | 41.69132 | 68.24830 | 30518 ft | 447 kts | 217° |
| 2026-04-13 19:28 | 41.66424 | 68.22721 | 29603 ft | 452 kts | 217° |
| 2026-04-13 19:29 | 41.63722 | 68.20625 | 29064 ft | 445 kts | 217° |
| 2026-04-13 19:29 | 41.61067 | 68.18568 | 28485 ft | 440 kts | 216° |
| 2026-04-13 19:29 | 41.58431 | 68.16526 | 27879 ft | 435 kts | 216° |
| 2026-04-13 19:29 | 41.55825 | 68.14507 | 27275 ft | 431 kts | 216° |
| 2026-04-13 19:30 | 41.53247 | 68.12510 | 26708 ft | 427 kts | 216° |
| 2026-04-13 19:30 | 41.50693 | 68.10534 | 26114 ft | 423 kts | 216° |
| 2026-04-13 19:30 | 41.48154 | 68.08571 | 25545 ft | 419 kts | 215° |
| 2026-04-13 19:30 | 41.45639 | 68.06629 | 24987 ft | 415 kts | 215° |
| 2026-04-13 19:31 | 41.43155 | 68.04784 | 24431 ft | 415 kts | 209° |
| 2026-04-13 19:31 | 41.40394 | 68.03610 | 23884 ft | 420 kts | 194° |
| 2026-04-13 19:31 | 41.37434 | 68.03408 | 23300 ft | 423 kts | 179° |
| 2026-04-13 19:31 | 41.34591 | 68.04201 | 22722 ft | 425 kts | 163° |
| 2026-04-13 19:32 | 41.31952 | 68.05953 | 22143 ft | 425 kts | 147° |
| 2026-04-13 19:32 | 41.29745 | 68.08552 | 21589 ft | 424 kts | 131° |
| 2026-04-13 19:32 | 41.28152 | 68.11813 | 21167 ft | 418 kts | 114° |
| 2026-04-13 19:32 | 41.27325 | 68.15496 | 21027 ft | 419 kts | 97° |
| 2026-04-13 19:33 | 41.27237 | 68.19373 | 21008 ft | 421 kts | 86° |
| 2026-04-13 19:33 | 41.27411 | 68.23251 | 21002 ft | 419 kts | 85° |
| 2026-04-13 19:33 | 41.27551 | 68.27126 | 20836 ft | 420 kts | 86° |
| 2026-04-13 19:34 | 41.27580 | 68.34856 | 20339 ft | 415 kts | 90° |
| 2026-04-13 19:34 | 41.27521 | 68.38639 | 20102 ft | 413 kts | 90° |
| 2026-04-13 19:34 | 41.27445 | 68.42490 | 19850 ft | 411 kts | 90° |
| 2026-04-13 19:34 | 41.27365 | 68.46232 | 19616 ft | 409 kts | 90° |
| 2026-04-13 19:35 | 41.27283 | 68.49999 | 19379 ft | 407 kts | 90° |
| 2026-04-13 19:35 | 41.27202 | 68.53754 | 19140 ft | 405 kts | 90° |
| 2026-04-13 19:35 | 41.27122 | 68.57461 | 18909 ft | 403 kts | 90° |
| 2026-04-13 19:35 | 41.27040 | 68.61210 | 18439 ft | 405 kts | 91° |
| 2026-04-13 19:36 | 41.26958 | 68.64955 | 17688 ft | 407 kts | 91° |
| 2026-04-13 19:36 | 41.26874 | 68.68726 | 16764 ft | 406 kts | 91° |
| 2026-04-13 19:36 | 41.26789 | 68.72448 | 16227 ft | 399 kts | 91° |
| 2026-04-13 19:36 | 41.26705 | 68.76087 | 15942 ft | 387 kts | 91° |
| 2026-04-13 19:37 | 41.26622 | 68.79631 | 15515 ft | 381 kts | 91° |
| 2026-04-13 19:37 | 41.26539 | 68.83124 | 15137 ft | 374 kts | 91° |
| 2026-04-13 19:37 | 41.26457 | 68.86520 | 15025 ft | 359 kts | 91° |
| 2026-04-13 19:37 | 41.26378 | 68.89766 | 15011 ft | 342 kts | 91° |
| 2026-04-13 19:38 | 41.25985 | 68.92801 | 14835 ft | 331 kts | 113° |
| 2026-04-13 19:38 | 41.24708 | 68.95289 | 14382 ft | 327 kts | 140° |
| 2026-04-13 19:38 | 41.22773 | 68.96737 | 13805 ft | 318 kts | 168° |
| 2026-04-13 19:38 | 41.20631 | 68.96795 | 13323 ft | 310 kts | 197° |
| 2026-04-13 19:39 | 41.18794 | 68.95487 | 13076 ft | 295 kts | 227° |
| 2026-04-13 19:39 | 41.17689 | 68.93221 | 12884 ft | 301 kts | 244° |
| 2026-04-13 19:39 | 41.16336 | 68.90877 | 12620 ft | 339 kts | 223° |
| 2026-04-13 19:39 | 41.14291 | 68.89250 | 12373 ft | 347 kts | 201° |
| 2026-04-13 19:40 | 41.11925 | 68.88713 | 12120 ft | 348 kts | 180° |
| 2026-04-13 19:40 | 41.09559 | 68.89358 | 11871 ft | 350 kts | 159° |
| 2026-04-13 19:40 | 41.07519 | 68.91113 | 11656 ft | 352 kts | 137° |
| 2026-04-13 19:40 | 41.06505 | 68.92771 | 11592 ft | 347 kts | 122° |
| 2026-04-13 19:41 | 41.05570 | 68.96693 | 11434 ft | 333 kts | 92° |
| 2026-04-13 19:41 | 41.05702 | 68.98725 | 11352 ft | 323 kts | 76° |
| 2026-04-13 19:41 | 41.07043 | 69.02049 | 11163 ft | 299 kts | 43° |
| 2026-04-13 19:42 | 41.09453 | 69.05044 | 10906 ft | 270 kts | 48° |
| 2026-04-13 19:42 | 41.10504 | 69.07016 | 10602 ft | 263 kts | 60° |
| 2026-04-13 19:42 | 41.11259 | 69.09239 | 10195 ft | 259 kts | 70° |
| 2026-04-13 19:42 | 41.11773 | 69.11517 | 10131 ft | 268 kts | 75° |
| 2026-04-13 19:43 | 41.12197 | 69.13906 | 10013 ft | 264 kts | 77° |
| 2026-04-13 19:43 | 41.12573 | 69.16282 | 9783 ft | 263 kts | 78° |
| 2026-04-13 19:43 | 41.12936 | 69.18649 | 9515 ft | 260 kts | 78° |
| 2026-04-13 19:43 | 41.13297 | 69.20995 | 9228 ft | 258 kts | 78° |
| 2026-04-13 19:44 | 41.13659 | 69.23314 | 8924 ft | 256 kts | 78° |
| 2026-04-13 19:44 | 41.14020 | 69.25618 | 8611 ft | 254 kts | 78° |
| 2026-04-13 19:44 | 41.14380 | 69.27906 | 8319 ft | 252 kts | 78° |
| 2026-04-13 19:44 | 41.14737 | 69.30169 | 8029 ft | 250 kts | 78° |
| 2026-04-13 19:45 | 41.15090 | 69.32414 | 7748 ft | 248 kts | 78° |
| 2026-04-13 19:45 | 41.15437 | 69.34619 | 7476 ft | 245 kts | 78° |
| 2026-04-13 19:45 | 41.15783 | 69.36826 | 7197 ft | 244 kts | 78° |
| 2026-04-13 19:45 | 41.16128 | 69.39025 | 6901 ft | 243 kts | 78° |
| 2026-04-13 19:46 | 41.16470 | 69.41209 | 6636 ft | 241 kts | 78° |
| 2026-04-13 19:46 | 41.16809 | 69.43374 | 6377 ft | 238 kts | 78° |
| 2026-04-13 19:46 | 41.17143 | 69.45518 | 6091 ft | 237 kts | 78° |
| 2026-04-13 19:46 | 41.17478 | 69.47664 | 5799 ft | 236 kts | 78° |
| 2026-04-13 19:47 | 41.17810 | 69.49789 | 5520 ft | 235 kts | 77° |
| 2026-04-13 19:47 | 41.18506 | 69.51715 | 5209 ft | 233 kts | 47° |
| 2026-04-13 19:47 | 41.19848 | 69.52870 | 4899 ft | 232 kts | 15° |
| 2026-04-13 19:47 | 41.21447 | 69.52962 | 4570 ft | 232 kts | 353° |
| 2026-04-13 19:48 | 41.23030 | 69.52648 | 4376 ft | 225 kts | 351° |
| 2026-04-13 19:48 | 41.24539 | 69.52316 | 4272 ft | 214 kts | 351° |
| 2026-04-13 19:48 | 41.25980 | 69.52018 | 4140 ft | 205 kts | 352° |
| 2026-04-13 19:48 | 41.27241 | 69.51383 | 4076 ft | 189 kts | 321° |
| 2026-04-13 19:49 | 41.27969 | 69.50037 | 3974 ft | 175 kts | 289° |
| 2026-04-13 19:49 | 41.28103 | 69.48514 | 3820 ft | 161 kts | 261° |
| 2026-04-13 19:49 | 41.27921 | 69.47099 | 3581 ft | 153 kts | 260° |
| 2026-04-13 19:49 | 41.27774 | 69.45696 | 3553 ft | 154 kts | 261° |
| 2026-04-13 19:50 | 41.27624 | 69.44332 | 3469 ft | 147 kts | 261° |
| 2026-04-13 19:50 | 41.27475 | 69.42976 | 3308 ft | 147 kts | 261° |
| 2026-04-13 19:50 | 41.27328 | 69.41629 | 3138 ft | 147 kts | 261° |
| 2026-04-13 19:50 | 41.27180 | 69.40286 | 2955 ft | 146 kts | 261° |
| 2026-04-13 19:51 | 41.27033 | 69.38944 | 2771 ft | 146 kts | 260° |
| 2026-04-13 19:51 | 41.26889 | 69.37631 | 2584 ft | 145 kts | 260° |
| 2026-04-13 19:51 | 41.26745 | 69.36306 | 2392 ft | 145 kts | 261° |
| 2026-04-13 19:51 | 41.26600 | 69.34983 | 2204 ft | 145 kts | 261° |
| 2026-04-13 19:52 | 41.26453 | 69.33664 | 1985 ft | 144 kts | 262° |
| 2026-04-13 19:52 | 41.26311 | 69.32351 | 1798 ft | 143 kts | 261° |
| 2026-04-13 19:52 | 41.26167 | 69.31033 | 1538 ft | 144 kts | 262° |
| 2026-04-13 19:52 | 41.26017 | 69.29723 | 1409 ft | 139 kts | 261° |
| 2026-04-13 19:53 | 41.25919 | 69.28793 | 1409 ft | 59 kts | 262° |
| 2026-04-13 19:53 | 41.25877 | 69.28424 | 1409 ft | 38 kts | 261° |
| 2026-04-13 19:53 | 41.25838 | 69.28071 | 1407 ft | 40 kts | 262° |
| 2026-04-13 19:53 | 41.25798 | 69.27697 | 1403 ft | 38 kts | 263° |
| 2026-04-13 19:54 | 41.25876 | 69.27463 | 1405 ft | 20 kts | 321° |
| 2026-04-13 19:54 | 41.25915 | 69.27414 | 1410 ft | 0 kts | 317° |
| 2026-04-13 19:54 | 41.25916 | 69.27413 | 1409 ft | 1 kts | 317° |
| 2026-04-13 19:55 | 41.25941 | 69.27382 | 1406 ft | 8 kts | 317° |
| 2026-04-13 19:55 | 41.25992 | 69.27322 | 1405 ft | 12 kts | 320° |
| 2026-04-13 19:55 | 41.26061 | 69.27244 | 1410 ft | 14 kts | 319° |
| 2026-04-13 19:55 | 41.26124 | 69.27152 | 1408 ft | 13 kts | 282° |
| 2026-04-13 19:56 | 41.26094 | 69.27026 | 1408 ft | 16 kts | 247° |
| 2026-04-13 19:56 | 41.26047 | 69.26880 | 1407 ft | 18 kts | 246° |
| 2026-04-13 19:56 | 41.25995 | 69.26722 | 1407 ft | 19 kts | 246° |
| 2026-04-13 19:56 | 41.25938 | 69.26554 | 1412 ft | 19 kts | 246° |
| 2026-04-13 19:57 | 41.25948 | 69.26481 | 1405 ft | 1 kts | 356° |
| 2026-04-13 19:57 | 41.25955 | 69.26491 | 1409 ft | 4 kts | 42° |
| 2026-04-13 19:57 | 41.25964 | 69.26529 | 1406 ft | 5 kts | 73° |
| 2026-04-13 19:57 | 41.25999 | 69.26566 | 1408 ft | 7 kts | 24° |
| 2026-04-13 19:58 | 41.26022 | 69.26578 | 1407 ft | 1 kts | 22° |
| 2026-04-13 19:58 | 41.26038 | 69.26586 | 1410 ft | 4 kts | 24° |
| 2026-04-13 19:58 | 41.26053 | 69.26614 | 1404 ft | 3 kts | 65° |
| 2026-04-13 19:58 | 41.26053 | 69.26617 | 1403 ft | 0 kts | 67° |